sensor_id;sensor_type;location;lat;lon;timestamp;temperature;humidity
16511;DHT22;8368;48.772;8.754;2022-11-18T00:02:05;6.70;99.90
16511;DHT22;8368;48.772;8.754;2022-11-18T00:04:31;6.70;99.90
16511;DHT22;8368;48.772;8.754;2022-11-18T00:06:56;6.70;99.90
16511;DHT22;8368;48.772;8.754;2022-11-18T00:09:22;6.70;99.90
16511;DHT22;8368;48.772;8.754;2022-11-18T00:11:47;6.70;99.90
16511;DHT22;8368;48.772;8.754;2022-11-18T00:14:32;6.70;99.90
16511;DHT22;8368;48.772;8.754;2022-11-18T00:16:58;6.70;99.90
16511;DHT22;8368;48.772;8.754;2022-11-18T00:19:30;6.70;99.90
16511;DHT22;8368;48.772;8.754;2022-11-18T00:21:57;6.70;99.90
16511;DHT22;8368;48.772;8.754;2022-11-18T00:24:23;6.70;99.90
16511;DHT22;8368;48.772;8.754;2022-11-18T00:26:49;6.70;99.90
16511;DHT22;8368;48.772;8.754;2022-11-18T00:29:15;6.70;99.90
16511;DHT22;8368;48.772;8.754;2022-11-18T00:31:42;6.70;99.90
16511;DHT22;8368;48.772;8.754;2022-11-18T00:34:15;6.70;99.90
16511;DHT22;8368;48.772;8.754;2022-11-18T00:36:42;6.70;99.90
16511;DHT22;8368;48.772;8.754;2022-11-18T00:39:10;6.70;99.90
16511;DHT22;8368;48.772;8.754;2022-11-18T00:41:36;6.70;99.90
16511;DHT22;8368;48.772;8.754;2022-11-18T00:44:20;6.70;99.90
16511;DHT22;8368;48.772;8.754;2022-11-18T00:46:46;6.70;99.90
16511;DHT22;8368;48.772;8.754;2022-11-18T00:49:11;6.70;99.90
16511;DHT22;8368;48.772;8.754;2022-11-18T00:51:37;6.70;99.90
16511;DHT22;8368;48.772;8.754;2022-11-18T00:54:03;6.70;99.90
16511;DHT22;8368;48.772;8.754;2022-11-18T00:56:28;6.70;99.90
16511;DHT22;8368;48.772;8.754;2022-11-18T00:58:54;6.80;99.90
16511;DHT22;8368;48.772;8.754;2022-11-18T01:01:19;6.70;99.90
16511;DHT22;8368;48.772;8.754;2022-11-18T01:03:45;6.80;99.90
16511;DHT22;8368;48.772;8.754;2022-11-18T01:06:10;6.80;99.90
16511;DHT22;8368;48.772;8.754;2022-11-18T01:08:36;6.80;99.90
16511;DHT22;8368;48.772;8.754;2022-11-18T01:11:01;6.90;99.90
16511;DHT22;8368;48.772;8.754;2022-11-18T01:13:50;6.90;99.90
16511;DHT22;8368;48.772;8.754;2022-11-18T01:16:23;6.90;99.90
16511;DHT22;8368;48.772;8.754;2022-11-18T01:18:49;6.90;99.90
16511;DHT22;8368;48.772;8.754;2022-11-18T01:21:14;6.90;99.90
16511;DHT22;8368;48.772;8.754;2022-11-18T01:23:40;6.90;99.90
16511;DHT22;8368;48.772;8.754;2022-11-18T01:26:08;6.90;99.90
16511;DHT22;8368;48.772;8.754;2022-11-18T01:28:34;6.90;99.90
16511;DHT22;8368;48.772;8.754;2022-11-18T01:33:29;6.90;99.90
16511;DHT22;8368;48.772;8.754;2022-11-18T01:35:55;6.90;99.90
16511;DHT22;8368;48.772;8.754;2022-11-18T01:38:20;6.90;99.90
16511;DHT22;8368;48.772;8.754;2022-11-18T01:40:46;6.90;99.90
16511;DHT22;8368;48.772;8.754;2022-11-18T01:43:13;6.80;99.90
16511;DHT22;8368;48.772;8.754;2022-11-18T01:45:42;6.80;99.90
16511;DHT22;8368;48.772;8.754;2022-11-18T01:48:12;6.90;99.90
16511;DHT22;8368;48.772;8.754;2022-11-18T01:50:43;6.90;99.90
16511;DHT22;8368;48.772;8.754;2022-11-18T01:53:20;6.80;99.90
16511;DHT22;8368;48.772;8.754;2022-11-18T01:55:49;6.80;99.90
16511;DHT22;8368;48.772;8.754;2022-11-18T01:58:21;6.90;99.90
16511;DHT22;8368;48.772;8.754;2022-11-18T02:00:48;6.80;99.90
16511;DHT22;8368;48.772;8.754;2022-11-18T02:03:14;6.80;99.90
16511;DHT22;8368;48.772;8.754;2022-11-18T02:05:41;6.80;99.90
16511;DHT22;8368;48.772;8.754;2022-11-18T02:08:08;6.80;99.90
16511;DHT22;8368;48.772;8.754;2022-11-18T02:10:34;6.80;99.90
16511;DHT22;8368;48.772;8.754;2022-11-18T02:13:00;6.80;99.90
16511;DHT22;8368;48.772;8.754;2022-11-18T02:20:38;6.80;99.90
16511;DHT22;8368;48.772;8.754;2022-11-18T02:29:07;6.80;99.90
16511;DHT22;8368;48.772;8.754;2022-11-18T02:31:36;6.80;99.90
16511;DHT22;8368;48.772;8.754;2022-11-18T02:36:42;6.80;99.90
16511;DHT22;8368;48.772;8.754;2022-11-18T02:39:46;6.80;99.90
16511;DHT22;8368;48.772;8.754;2022-11-18T02:42:11;6.80;99.90
16511;DHT22;8368;48.772;8.754;2022-11-18T02:44:39;6.80;99.90
16511;DHT22;8368;48.772;8.754;2022-11-18T02:47:08;6.80;99.90
16511;DHT22;8368;48.772;8.754;2022-11-18T02:49:39;6.80;99.90
16511;DHT22;8368;48.772;8.754;2022-11-18T02:52:07;6.80;99.90
16511;DHT22;8368;48.772;8.754;2022-11-18T02:54:36;6.80;99.90
16511;DHT22;8368;48.772;8.754;2022-11-18T02:57:03;6.80;99.90
16511;DHT22;8368;48.772;8.754;2022-11-18T02:59:29;6.80;99.90
16511;DHT22;8368;48.772;8.754;2022-11-18T03:01:55;6.80;99.90
16511;DHT22;8368;48.772;8.754;2022-11-18T03:04:22;6.80;99.90
16511;DHT22;8368;48.772;8.754;2022-11-18T03:07:19;6.80;99.90
16511;DHT22;8368;48.772;8.754;2022-11-18T03:09:50;6.80;99.90
16511;DHT22;8368;48.772;8.754;2022-11-18T03:12:38;6.80;99.90
16511;DHT22;8368;48.772;8.754;2022-11-18T03:17:49;6.70;99.90
16511;DHT22;8368;48.772;8.754;2022-11-18T03:21:01;6.70;99.90
16511;DHT22;8368;48.772;8.754;2022-11-18T03:23:37;6.70;99.90
16511;DHT22;8368;48.772;8.754;2022-11-18T03:26:08;6.60;99.90
16511;DHT22;8368;48.772;8.754;2022-11-18T03:28:45;6.60;99.90
16511;DHT22;8368;48.772;8.754;2022-11-18T03:31:28;6.60;99.90
16511;DHT22;8368;48.772;8.754;2022-11-18T03:34:07;6.60;99.90
16511;DHT22;8368;48.772;8.754;2022-11-18T03:36:38;6.60;99.90
16511;DHT22;8368;48.772;8.754;2022-11-18T03:39:05;6.60;99.90
16511;DHT22;8368;48.772;8.754;2022-11-18T03:41:35;6.60;99.90
16511;DHT22;8368;48.772;8.754;2022-11-18T03:44:12;6.50;99.90
16511;DHT22;8368;48.772;8.754;2022-11-18T03:46:48;6.50;99.90
16511;DHT22;8368;48.772;8.754;2022-11-18T03:49:21;6.40;99.90
16511;DHT22;8368;48.772;8.754;2022-11-18T03:51:54;6.40;99.90
16511;DHT22;8368;48.772;8.754;2022-11-18T03:54:24;6.40;99.90
16511;DHT22;8368;48.772;8.754;2022-11-18T03:56:59;6.40;99.90
16511;DHT22;8368;48.772;8.754;2022-11-18T03:59:35;6.30;99.90
16511;DHT22;8368;48.772;8.754;2022-11-18T04:04:28;6.30;99.90
16511;DHT22;8368;48.772;8.754;2022-11-18T04:07:04;6.30;99.90
16511;DHT22;8368;48.772;8.754;2022-11-18T04:09:43;6.30;99.90
16511;DHT22;8368;48.772;8.754;2022-11-18T04:12:13;6.30;99.90
16511;DHT22;8368;48.772;8.754;2022-11-18T04:14:42;6.20;99.90
16511;DHT22;8368;48.772;8.754;2022-11-18T04:17:25;6.20;99.90
16511;DHT22;8368;48.772;8.754;2022-11-18T04:19:51;6.20;99.90
16511;DHT22;8368;48.772;8.754;2022-11-18T04:22:17;6.20;99.90
16511;DHT22;8368;48.772;8.754;2022-11-18T04:24:43;6.20;99.90
16511;DHT22;8368;48.772;8.754;2022-11-18T04:27:09;6.20;99.90
16511;DHT22;8368;48.772;8.754;2022-11-18T04:29:34;6.20;99.90
16511;DHT22;8368;48.772;8.754;2022-11-18T04:32:01;6.10;99.90
16511;DHT22;8368;48.772;8.754;2022-11-18T04:34:27;6.20;99.90
16511;DHT22;8368;48.772;8.754;2022-11-18T04:36:53;6.20;99.90
16511;DHT22;8368;48.772;8.754;2022-11-18T04:39:19;6.10;99.90
16511;DHT22;8368;48.772;8.754;2022-11-18T04:41:44;6.20;99.90
16511;DHT22;8368;48.772;8.754;2022-11-18T04:44:27;6.20;99.90
16511;DHT22;8368;48.772;8.754;2022-11-18T04:46:54;6.20;99.90
16511;DHT22;8368;48.772;8.754;2022-11-18T04:49:21;6.20;99.90
16511;DHT22;8368;48.772;8.754;2022-11-18T04:51:47;6.20;99.90
16511;DHT22;8368;48.772;8.754;2022-11-18T04:54:13;6.20;99.90
16511;DHT22;8368;48.772;8.754;2022-11-18T04:56:40;6.10;99.90
16511;DHT22;8368;48.772;8.754;2022-11-18T04:59:06;6.10;99.90
16511;DHT22;8368;48.772;8.754;2022-11-18T05:01:31;6.10;99.90
16511;DHT22;8368;48.772;8.754;2022-11-18T05:03:59;6.10;99.90
16511;DHT22;8368;48.772;8.754;2022-11-18T05:06:26;6.10;99.90
16511;DHT22;8368;48.772;8.754;2022-11-18T05:08:52;6.10;99.90
16511;DHT22;8368;48.772;8.754;2022-11-18T05:11:17;6.10;99.90
16511;DHT22;8368;48.772;8.754;2022-11-18T05:14:02;6.10;99.90
16511;DHT22;8368;48.772;8.754;2022-11-18T05:16:27;6.10;99.90
16511;DHT22;8368;48.772;8.754;2022-11-18T05:18:53;6.10;99.90
16511;DHT22;8368;48.772;8.754;2022-11-18T05:21:18;6.10;99.90
16511;DHT22;8368;48.772;8.754;2022-11-18T05:23:44;6.10;99.90
16511;DHT22;8368;48.772;8.754;2022-11-18T05:26:10;6.10;99.90
16511;DHT22;8368;48.772;8.754;2022-11-18T05:28:36;6.00;99.90
16511;DHT22;8368;48.772;8.754;2022-11-18T05:31:11;6.00;99.90
16511;DHT22;8368;48.772;8.754;2022-11-18T05:33:37;6.00;99.90
16511;DHT22;8368;48.772;8.754;2022-11-18T05:36:13;6.00;99.90
16511;DHT22;8368;48.772;8.754;2022-11-18T05:38:40;6.00;99.90
16511;DHT22;8368;48.772;8.754;2022-11-18T05:41:06;6.00;99.90
16511;DHT22;8368;48.772;8.754;2022-11-18T05:43:32;5.90;99.90
16511;DHT22;8368;48.772;8.754;2022-11-18T05:45:58;5.90;99.90
16511;DHT22;8368;48.772;8.754;2022-11-18T05:48:24;5.90;99.90
16511;DHT22;8368;48.772;8.754;2022-11-18T05:50:52;5.90;99.90
16511;DHT22;8368;48.772;8.754;2022-11-18T05:53:19;5.90;99.90
16511;DHT22;8368;48.772;8.754;2022-11-18T05:56:06;5.90;99.90
16511;DHT22;8368;48.772;8.754;2022-11-18T05:58:36;5.90;99.90
16511;DHT22;8368;48.772;8.754;2022-11-18T06:01:04;5.90;99.90
16511;DHT22;8368;48.772;8.754;2022-11-18T06:03:33;5.90;99.90
16511;DHT22;8368;48.772;8.754;2022-11-18T06:06:02;5.90;99.90
16511;DHT22;8368;48.772;8.754;2022-11-18T06:08:31;5.90;99.90
16511;DHT22;8368;48.772;8.754;2022-11-18T06:10:57;5.90;99.90
16511;DHT22;8368;48.772;8.754;2022-11-18T06:13:27;5.90;99.90
16511;DHT22;8368;48.772;8.754;2022-11-18T06:15:53;5.90;99.90
16511;DHT22;8368;48.772;8.754;2022-11-18T06:18:25;5.90;99.90
16511;DHT22;8368;48.772;8.754;2022-11-18T06:20:54;5.90;99.90
16511;DHT22;8368;48.772;8.754;2022-11-18T06:23:21;5.90;99.90
16511;DHT22;8368;48.772;8.754;2022-11-18T06:25:47;5.90;99.90
16511;DHT22;8368;48.772;8.754;2022-11-18T06:28:15;5.90;99.90
16511;DHT22;8368;48.772;8.754;2022-11-18T06:30:41;6.00;99.90
16511;DHT22;8368;48.772;8.754;2022-11-18T06:33:07;5.90;99.90
16511;DHT22;8368;48.772;8.754;2022-11-18T06:35:33;5.90;99.90
16511;DHT22;8368;48.772;8.754;2022-11-18T06:37:59;5.90;99.90
16511;DHT22;8368;48.772;8.754;2022-11-18T06:40:25;5.90;99.90
16511;DHT22;8368;48.772;8.754;2022-11-18T06:42:50;5.90;99.90
16511;DHT22;8368;48.772;8.754;2022-11-18T06:45:34;5.90;99.90
16511;DHT22;8368;48.772;8.754;2022-11-18T06:48:00;5.90;99.90
16511;DHT22;8368;48.772;8.754;2022-11-18T06:50:27;5.90;99.90
16511;DHT22;8368;48.772;8.754;2022-11-18T06:52:52;6.00;99.90
16511;DHT22;8368;48.772;8.754;2022-11-18T06:55:18;5.90;99.90
16511;DHT22;8368;48.772;8.754;2022-11-18T06:57:44;5.90;99.90
16511;DHT22;8368;48.772;8.754;2022-11-18T07:00:10;6.00;99.90
16511;DHT22;8368;48.772;8.754;2022-11-18T07:02:36;6.00;99.90
16511;DHT22;8368;48.772;8.754;2022-11-18T07:05:02;6.00;99.90
16511;DHT22;8368;48.772;8.754;2022-11-18T07:07:28;6.00;99.90
16511;DHT22;8368;48.772;8.754;2022-11-18T07:09:53;6.10;99.90
16511;DHT22;8368;48.772;8.754;2022-11-18T07:12:19;6.00;99.90
16511;DHT22;8368;48.772;8.754;2022-11-18T07:14:44;6.00;99.90
16511;DHT22;8368;48.772;8.754;2022-11-18T07:17:10;6.00;99.90
16511;DHT22;8368;48.772;8.754;2022-11-18T07:19:36;6.00;99.90
16511;DHT22;8368;48.772;8.754;2022-11-18T07:22:01;6.00;99.90
16511;DHT22;8368;48.772;8.754;2022-11-18T07:24:27;6.10;99.90
16511;DHT22;8368;48.772;8.754;2022-11-18T07:26:52;6.10;99.90
16511;DHT22;8368;48.772;8.754;2022-11-18T07:29:19;6.10;99.90
16511;DHT22;8368;48.772;8.754;2022-11-18T07:31:44;6.10;99.90
16511;DHT22;8368;48.772;8.754;2022-11-18T07:34:11;6.10;99.90
16511;DHT22;8368;48.772;8.754;2022-11-18T07:36:37;6.10;99.90
16511;DHT22;8368;48.772;8.754;2022-11-18T07:39:05;6.10;99.90
16511;DHT22;8368;48.772;8.754;2022-11-18T07:41:31;6.20;99.90
16511;DHT22;8368;48.772;8.754;2022-11-18T07:43:58;6.20;99.90
16511;DHT22;8368;48.772;8.754;2022-11-18T07:46:30;6.20;99.90
16511;DHT22;8368;48.772;8.754;2022-11-18T07:48:57;6.20;99.90
16511;DHT22;8368;48.772;8.754;2022-11-18T07:51:26;6.20;99.90
16511;DHT22;8368;48.772;8.754;2022-11-18T07:53:52;6.20;99.90
16511;DHT22;8368;48.772;8.754;2022-11-18T07:56:19;6.30;99.90
16511;DHT22;8368;48.772;8.754;2022-11-18T07:58:45;6.30;99.90
16511;DHT22;8368;48.772;8.754;2022-11-18T08:01:13;6.30;99.90
16511;DHT22;8368;48.772;8.754;2022-11-18T08:03:40;6.40;99.90
16511;DHT22;8368;48.772;8.754;2022-11-18T08:06:07;6.40;99.90
16511;DHT22;8368;48.772;8.754;2022-11-18T08:08:34;6.40;99.90
16511;DHT22;8368;48.772;8.754;2022-11-18T08:11:01;6.50;99.90
16511;DHT22;8368;48.772;8.754;2022-11-18T08:13:27;6.50;99.90
16511;DHT22;8368;48.772;8.754;2022-11-18T08:15:54;6.50;99.90
16511;DHT22;8368;48.772;8.754;2022-11-18T08:18:21;6.60;99.90
16511;DHT22;8368;48.772;8.754;2022-11-18T08:20:47;6.60;99.90
16511;DHT22;8368;48.772;8.754;2022-11-18T08:23:14;6.60;99.90
16511;DHT22;8368;48.772;8.754;2022-11-18T08:25:41;6.70;99.90
16511;DHT22;8368;48.772;8.754;2022-11-18T08:28:07;6.70;99.90
16511;DHT22;8368;48.772;8.754;2022-11-18T08:30:33;6.70;99.90
16511;DHT22;8368;48.772;8.754;2022-11-18T08:32:59;6.70;99.90
16511;DHT22;8368;48.772;8.754;2022-11-18T08:35:25;6.80;99.90
16511;DHT22;8368;48.772;8.754;2022-11-18T08:37:51;6.80;99.90
16511;DHT22;8368;48.772;8.754;2022-11-18T08:40:17;6.80;99.90
16511;DHT22;8368;48.772;8.754;2022-11-18T08:42:42;6.80;99.90
16511;DHT22;8368;48.772;8.754;2022-11-18T08:45:08;6.80;99.90
16511;DHT22;8368;48.772;8.754;2022-11-18T08:47:34;6.80;99.90
16511;DHT22;8368;48.772;8.754;2022-11-18T08:50:00;6.90;99.90
16511;DHT22;8368;48.772;8.754;2022-11-18T08:52:26;6.90;99.90
16511;DHT22;8368;48.772;8.754;2022-11-18T08:54:51;6.90;99.90
16511;DHT22;8368;48.772;8.754;2022-11-18T08:57:17;6.90;99.90
16511;DHT22;8368;48.772;8.754;2022-11-18T08:59:43;7.00;99.90
16511;DHT22;8368;48.772;8.754;2022-11-18T09:02:16;7.00;99.90
16511;DHT22;8368;48.772;8.754;2022-11-18T09:04:42;7.00;99.90
16511;DHT22;8368;48.772;8.754;2022-11-18T09:07:08;7.00;99.90
16511;DHT22;8368;48.772;8.754;2022-11-18T09:09:34;7.10;99.90
16511;DHT22;8368;48.772;8.754;2022-11-18T09:11:59;7.10;99.90
16511;DHT22;8368;48.772;8.754;2022-11-18T09:14:25;7.10;99.90
16511;DHT22;8368;48.772;8.754;2022-11-18T09:16:50;7.20;99.90
16511;DHT22;8368;48.772;8.754;2022-11-18T09:19:16;7.30;99.90
16511;DHT22;8368;48.772;8.754;2022-11-18T09:21:42;7.30;99.90
16511;DHT22;8368;48.772;8.754;2022-11-18T09:24:07;7.40;99.90
16511;DHT22;8368;48.772;8.754;2022-11-18T09:26:33;7.40;99.90
16511;DHT22;8368;48.772;8.754;2022-11-18T09:28:59;7.50;99.90
16511;DHT22;8368;48.772;8.754;2022-11-18T09:31:25;7.50;99.90
16511;DHT22;8368;48.772;8.754;2022-11-18T09:33:50;7.50;99.90
16511;DHT22;8368;48.772;8.754;2022-11-18T09:36:21;7.50;99.90
16511;DHT22;8368;48.772;8.754;2022-11-18T09:38:47;7.50;99.90
16511;DHT22;8368;48.772;8.754;2022-11-18T09:41:39;7.50;99.90
16511;DHT22;8368;48.772;8.754;2022-11-18T09:47:16;7.50;99.90
16511;DHT22;8368;48.772;8.754;2022-11-18T09:49:45;7.60;99.90
16511;DHT22;8368;48.772;8.754;2022-11-18T09:54:37;7.70;99.90
16511;DHT22;8368;48.772;8.754;2022-11-18T09:59:43;7.80;99.90
16511;DHT22;8368;48.772;8.754;2022-11-18T10:02:33;7.90;99.90
16511;DHT22;8368;48.772;8.754;2022-11-18T10:05:14;7.80;99.90
16511;DHT22;8368;48.772;8.754;2022-11-18T10:10:20;7.90;99.90
16511;DHT22;8368;48.772;8.754;2022-11-18T10:13:01;8.00;99.90
16511;DHT22;8368;48.772;8.754;2022-11-18T10:15:42;8.10;99.90
16511;DHT22;8368;48.772;8.754;2022-11-18T10:23:44;8.10;99.90
16511;DHT22;8368;48.772;8.754;2022-11-18T10:26:13;8.00;99.90
16511;DHT22;8368;48.772;8.754;2022-11-18T10:28:39;8.10;99.90
16511;DHT22;8368;48.772;8.754;2022-11-18T10:31:07;8.10;99.90
16511;DHT22;8368;48.772;8.754;2022-11-18T10:33:34;8.10;99.90
16511;DHT22;8368;48.772;8.754;2022-11-18T10:38:48;8.20;99.90
16511;DHT22;8368;48.772;8.754;2022-11-18T10:41:16;8.30;99.90
16511;DHT22;8368;48.772;8.754;2022-11-18T10:43:49;8.20;99.90
16511;DHT22;8368;48.772;8.754;2022-11-18T10:46:23;8.10;99.90
16511;DHT22;8368;48.772;8.754;2022-11-18T10:51:37;8.00;99.90
16511;DHT22;8368;48.772;8.754;2022-11-18T10:54:13;8.00;99.90
16511;DHT22;8368;48.772;8.754;2022-11-18T10:56:51;8.00;99.90
16511;DHT22;8368;48.772;8.754;2022-11-18T11:02:18;7.90;99.90
16511;DHT22;8368;48.772;8.754;2022-11-18T11:04:46;8.00;99.90
16511;DHT22;8368;48.772;8.754;2022-11-18T11:07:36;8.00;99.90
16511;DHT22;8368;48.772;8.754;2022-11-18T11:15:33;8.10;99.90
16511;DHT22;8368;48.772;8.754;2022-11-18T11:18:05;8.20;99.90
16511;DHT22;8368;48.772;8.754;2022-11-18T11:20:53;8.30;99.90
16511;DHT22;8368;48.772;8.754;2022-11-18T11:23:19;8.30;99.90
16511;DHT22;8368;48.772;8.754;2022-11-18T11:25:58;8.40;99.90
16511;DHT22;8368;48.772;8.754;2022-11-18T11:28:29;8.20;99.90
16511;DHT22;8368;48.772;8.754;2022-11-18T11:31:48;8.20;99.90
16511;DHT22;8368;48.772;8.754;2022-11-18T11:34:50;8.10;99.90
16511;DHT22;8368;48.772;8.754;2022-11-18T11:48:37;7.70;99.90
16511;DHT22;8368;48.772;8.754;2022-11-18T11:51:31;7.60;99.90
16511;DHT22;8368;48.772;8.754;2022-11-18T11:54:12;7.60;99.90
16511;DHT22;8368;48.772;8.754;2022-11-18T11:57:04;7.60;99.90
16511;DHT22;8368;48.772;8.754;2022-11-18T11:59:44;7.60;99.90
16511;DHT22;8368;48.772;8.754;2022-11-18T12:02:48;7.60;99.90
16511;DHT22;8368;48.772;8.754;2022-11-18T12:05:21;7.70;99.90
16511;DHT22;8368;48.772;8.754;2022-11-18T12:07:58;7.70;99.90
16511;DHT22;8368;48.772;8.754;2022-11-18T12:10:29;7.70;99.90
16511;DHT22;8368;48.772;8.754;2022-11-18T12:16:19;8.20;99.90
16511;DHT22;8368;48.772;8.754;2022-11-18T12:19:02;8.40;99.90
16511;DHT22;8368;48.772;8.754;2022-11-18T12:26:50;8.50;99.90
16511;DHT22;8368;48.772;8.754;2022-11-18T12:31:56;8.20;99.90
16511;DHT22;8368;48.772;8.754;2022-11-18T12:36:51;8.20;99.90
16511;DHT22;8368;48.772;8.754;2022-11-18T12:44:33;8.00;99.90
16511;DHT22;8368;48.772;8.754;2022-11-18T12:47:00;7.90;99.90
16511;DHT22;8368;48.772;8.754;2022-11-18T12:51:53;7.80;99.90
16511;DHT22;8368;48.772;8.754;2022-11-18T12:54:35;7.80;99.90
16511;DHT22;8368;48.772;8.754;2022-11-18T12:59:42;8.00;99.90
16511;DHT22;8368;48.772;8.754;2022-11-18T13:04:38;7.80;99.90
16511;DHT22;8368;48.772;8.754;2022-11-18T13:07:08;7.70;99.90
16511;DHT22;8368;48.772;8.754;2022-11-18T13:09:55;7.70;99.90
16511;DHT22;8368;48.772;8.754;2022-11-18T13:12:21;7.60;99.90
16511;DHT22;8368;48.772;8.754;2022-11-18T13:14:50;7.50;99.90
16511;DHT22;8368;48.772;8.754;2022-11-18T13:17:39;7.50;99.90
16511;DHT22;8368;48.772;8.754;2022-11-18T13:20:22;7.40;99.90
16511;DHT22;8368;48.772;8.754;2022-11-18T13:22:56;7.40;99.90
16511;DHT22;8368;48.772;8.754;2022-11-18T13:25:42;7.50;99.90
16511;DHT22;8368;48.772;8.754;2022-11-18T13:33:52;7.60;99.90
16511;DHT22;8368;48.772;8.754;2022-11-18T13:39:00;7.60;99.90
16511;DHT22;8368;48.772;8.754;2022-11-18T13:41:27;7.70;99.90
16511;DHT22;8368;48.772;8.754;2022-11-18T13:44:23;7.60;99.90
16511;DHT22;8368;48.772;8.754;2022-11-18T13:46:51;7.50;99.90
16511;DHT22;8368;48.772;8.754;2022-11-18T13:49:22;7.50;99.90
16511;DHT22;8368;48.772;8.754;2022-11-18T13:51:50;7.40;99.90
16511;DHT22;8368;48.772;8.754;2022-11-18T13:54:20;7.30;99.90
16511;DHT22;8368;48.772;8.754;2022-11-18T13:56:48;7.30;99.90
16511;DHT22;8368;48.772;8.754;2022-11-18T13:59:17;7.30;99.90
16511;DHT22;8368;48.772;8.754;2022-11-18T14:01:43;7.30;99.90
16511;DHT22;8368;48.772;8.754;2022-11-18T14:04:19;7.40;99.90
16511;DHT22;8368;48.772;8.754;2022-11-18T14:06:45;7.40;99.90
16511;DHT22;8368;48.772;8.754;2022-11-18T14:11:45;7.50;99.90
16511;DHT22;8368;48.772;8.754;2022-11-18T14:14:14;7.50;99.90
16511;DHT22;8368;48.772;8.754;2022-11-18T14:16:51;7.50;99.90
16511;DHT22;8368;48.772;8.754;2022-11-18T14:19:28;7.50;99.90
16511;DHT22;8368;48.772;8.754;2022-11-18T14:22:02;7.40;99.90
16511;DHT22;8368;48.772;8.754;2022-11-18T14:24:28;7.40;99.90
16511;DHT22;8368;48.772;8.754;2022-11-18T14:26:54;7.40;99.90
16511;DHT22;8368;48.772;8.754;2022-11-18T14:29:19;7.30;99.90
16511;DHT22;8368;48.772;8.754;2022-11-18T14:32:15;7.30;99.90
16511;DHT22;8368;48.772;8.754;2022-11-18T14:34:41;7.30;99.90
16511;DHT22;8368;48.772;8.754;2022-11-18T14:37:12;7.40;99.90
16511;DHT22;8368;48.772;8.754;2022-11-18T14:39:37;7.40;99.90
16511;DHT22;8368;48.772;8.754;2022-11-18T14:42:04;7.50;99.90
16511;DHT22;8368;48.772;8.754;2022-11-18T14:44:31;7.60;99.90
16511;DHT22;8368;48.772;8.754;2022-11-18T14:47:03;7.60;99.90
16511;DHT22;8368;48.772;8.754;2022-11-18T14:49:30;7.60;99.90
16511;DHT22;8368;48.772;8.754;2022-11-18T14:51:57;7.50;99.90
16511;DHT22;8368;48.772;8.754;2022-11-18T14:54:24;7.50;99.90
16511;DHT22;8368;48.772;8.754;2022-11-18T14:56:51;7.40;99.90
16511;DHT22;8368;48.772;8.754;2022-11-18T14:59:19;7.40;99.90
16511;DHT22;8368;48.772;8.754;2022-11-18T15:01:45;7.40;99.90
16511;DHT22;8368;48.772;8.754;2022-11-18T15:04:12;7.30;99.90
16511;DHT22;8368;48.772;8.754;2022-11-18T15:06:38;7.40;99.90
16511;DHT22;8368;48.772;8.754;2022-11-18T15:09:05;7.30;99.90
16511;DHT22;8368;48.772;8.754;2022-11-18T15:11:32;7.40;99.90
16511;DHT22;8368;48.772;8.754;2022-11-18T15:13:58;7.30;99.90
16511;DHT22;8368;48.772;8.754;2022-11-18T15:16:29;7.30;99.90
16511;DHT22;8368;48.772;8.754;2022-11-18T15:19:00;7.20;99.90
16511;DHT22;8368;48.772;8.754;2022-11-18T15:21:26;7.20;99.90
16511;DHT22;8368;48.772;8.754;2022-11-18T15:23:52;7.20;99.90
16511;DHT22;8368;48.772;8.754;2022-11-18T15:26:22;7.10;99.90
16511;DHT22;8368;48.772;8.754;2022-11-18T15:28:49;7.00;99.90
16511;DHT22;8368;48.772;8.754;2022-11-18T15:31:16;6.90;99.90
16511;DHT22;8368;48.772;8.754;2022-11-18T15:33:42;6.90;99.90
16511;DHT22;8368;48.772;8.754;2022-11-18T15:36:13;6.80;99.90
16511;DHT22;8368;48.772;8.754;2022-11-18T15:38:39;6.70;99.90
16511;DHT22;8368;48.772;8.754;2022-11-18T15:41:06;6.70;99.90
16511;DHT22;8368;48.772;8.754;2022-11-18T15:43:32;6.50;99.90
16511;DHT22;8368;48.772;8.754;2022-11-18T15:45:58;6.50;99.90
16511;DHT22;8368;48.772;8.754;2022-11-18T15:48:24;6.40;99.90
16511;DHT22;8368;48.772;8.754;2022-11-18T15:50:50;6.50;99.90
16511;DHT22;8368;48.772;8.754;2022-11-18T15:53:15;6.40;99.90
16511;DHT22;8368;48.772;8.754;2022-11-18T15:55:41;6.30;99.90
16511;DHT22;8368;48.772;8.754;2022-11-18T15:58:06;6.30;99.90
16511;DHT22;8368;48.772;8.754;2022-11-18T16:00:32;6.20;99.90
16511;DHT22;8368;48.772;8.754;2022-11-18T16:02:58;6.20;99.90
16511;DHT22;8368;48.772;8.754;2022-11-18T16:05:23;6.20;99.90
16511;DHT22;8368;48.772;8.754;2022-11-18T16:07:49;6.20;99.90
16511;DHT22;8368;48.772;8.754;2022-11-18T16:10:15;6.20;99.90
16511;DHT22;8368;48.772;8.754;2022-11-18T16:12:59;6.20;99.90
16511;DHT22;8368;48.772;8.754;2022-11-18T16:15:25;6.10;99.90
16511;DHT22;8368;48.772;8.754;2022-11-18T16:18:09;6.20;99.90
16511;DHT22;8368;48.772;8.754;2022-11-18T16:20:35;6.20;99.90
16511;DHT22;8368;48.772;8.754;2022-11-18T16:23:01;6.10;99.90
16511;DHT22;8368;48.772;8.754;2022-11-18T16:25:26;6.10;99.90
16511;DHT22;8368;48.772;8.754;2022-11-18T16:27:53;6.10;99.90
16511;DHT22;8368;48.772;8.754;2022-11-18T16:30:19;6.00;99.90
16511;DHT22;8368;48.772;8.754;2022-11-18T16:33:03;5.90;99.90
16511;DHT22;8368;48.772;8.754;2022-11-18T16:35:29;5.90;99.90
16511;DHT22;8368;48.772;8.754;2022-11-18T16:37:54;5.80;99.90
16511;DHT22;8368;48.772;8.754;2022-11-18T16:40:20;5.80;99.90
16511;DHT22;8368;48.772;8.754;2022-11-18T16:42:50;5.70;99.90
16511;DHT22;8368;48.772;8.754;2022-11-18T16:45:16;5.70;99.90
16511;DHT22;8368;48.772;8.754;2022-11-18T16:47:42;5.70;99.90
16511;DHT22;8368;48.772;8.754;2022-11-18T16:50:08;5.70;99.90
16511;DHT22;8368;48.772;8.754;2022-11-18T16:52:33;5.70;99.90
16511;DHT22;8368;48.772;8.754;2022-11-18T16:54:59;5.80;99.90
16511;DHT22;8368;48.772;8.754;2022-11-18T16:57:25;5.80;99.90
16511;DHT22;8368;48.772;8.754;2022-11-18T16:59:50;5.70;99.90
16511;DHT22;8368;48.772;8.754;2022-11-18T17:02:16;5.80;99.90
16511;DHT22;8368;48.772;8.754;2022-11-18T17:04:44;5.90;99.90
16511;DHT22;8368;48.772;8.754;2022-11-18T17:07:10;5.90;99.90
16511;DHT22;8368;48.772;8.754;2022-11-18T17:09:35;5.90;99.90
16511;DHT22;8368;48.772;8.754;2022-11-18T17:12:01;6.00;99.90
16511;DHT22;8368;48.772;8.754;2022-11-18T17:14:28;5.90;99.90
16511;DHT22;8368;48.772;8.754;2022-11-18T17:16:54;5.90;99.90
16511;DHT22;8368;48.772;8.754;2022-11-18T17:19:21;5.80;99.90
16511;DHT22;8368;48.772;8.754;2022-11-18T17:21:50;5.80;99.90
16511;DHT22;8368;48.772;8.754;2022-11-18T17:24:20;5.70;99.90
16511;DHT22;8368;48.772;8.754;2022-11-18T17:26:46;5.70;99.90
16511;DHT22;8368;48.772;8.754;2022-11-18T17:29:13;5.60;99.90
16511;DHT22;8368;48.772;8.754;2022-11-18T17:31:39;5.70;99.90
16511;DHT22;8368;48.772;8.754;2022-11-18T17:34:05;5.70;99.90
16511;DHT22;8368;48.772;8.754;2022-11-18T17:36:31;5.70;99.90
16511;DHT22;8368;48.772;8.754;2022-11-18T17:38:58;5.70;99.90
16511;DHT22;8368;48.772;8.754;2022-11-18T17:41:27;5.70;99.90
16511;DHT22;8368;48.772;8.754;2022-11-18T17:44:16;5.70;99.90
16511;DHT22;8368;48.772;8.754;2022-11-18T17:46:42;5.70;99.90
16511;DHT22;8368;48.772;8.754;2022-11-18T17:49:20;5.70;99.90
16511;DHT22;8368;48.772;8.754;2022-11-18T17:51:46;5.60;99.90
16511;DHT22;8368;48.772;8.754;2022-11-18T17:54:13;5.70;99.90
16511;DHT22;8368;48.772;8.754;2022-11-18T17:56:39;5.70;99.90
16511;DHT22;8368;48.772;8.754;2022-11-18T17:59:05;5.70;99.90